Time;durP1;ratioP1;P1;durP2;ratioP2;P2;SDS_P1;SDS_P2;PMS_P1;PMS_P2;Temp;Humidity;BMP_temperature;BMP_pressure;BME280_temperature;BME280_humidity;BME280_pressure;Samples;Min_cycle;Max_cycle;Signal;HPM_P1;HPM_P2
2023/05/09 08:29:52;;;;;;;11.20;9.10;;;14.60;99.90;;;;;;4782422;29;20233;-59
2023/05/09 08:32:20;;;;;;;11.57;8.20;;;14.50;99.90;;;;;;4795836;29;20258;-60
2023/05/09 08:34:48;;;;;;;9.17;8.20;;;14.50;99.90;;;;;;4795734;29;20651;-57
2023/05/09 08:37:17;;;;;;;9.53;8.30;;;14.50;99.90;;;;;;4786798;29;20300;-59
2023/05/09 08:39:47;;;;;;;14.70;8.70;;;14.50;99.90;;;;;;4788658;29;20279;-59
2023/05/09 08:42:19;;;;;;;10.20;9.03;;;14.50;99.90;;;;;;4786563;29;20654;-60
2023/05/09 08:44:47;;;;;;;15.73;9.50;;;14.50;99.90;;;;;;4790763;29;20201;-60
2023/05/09 08:47:19;;;;;;;12.07;9.80;;;14.50;99.90;;;;;;4805904;29;20229;-59
2023/05/09 08:49:50;;;;;;;13.83;9.07;;;14.50;99.90;;;;;;4798279;29;20288;-60
2023/05/09 08:52:23;;;;;;;14.30;9.47;;;14.50;99.90;;;;;;4797356;29;20284;-59
2023/05/09 08:54:52;;;;;;;12.63;8.53;;;14.50;99.90;;;;;;4766765;30;20222;-59
2023/05/09 08:57:20;;;;;;;9.53;8.40;;;14.60;99.90;;;;;;4790175;29;20587;-59
2023/05/09 08:59:51;;;;;;;10.10;8.27;;;14.60;99.90;;;;;;4791896;29;20213;-59
2023/05/09 09:02:21;;;;;;;10.07;7.60;;;14.50;99.90;;;;;;4782634;29;20251;-59
2023/05/09 09:04:51;;;;;;;9.47;7.50;;;14.50;99.90;;;;;;4774412;30;20279;-60
2023/05/09 09:07:20;;;;;;;11.77;8.17;;;14.50;99.90;;;;;;4787404;29;20685;-60
2023/05/09 09:09:49;;;;;;;7.57;6.87;;;14.40;99.90;;;;;;4787084;29;20234;-59
2023/05/09 09:16:00;;;;;;;8.90;7.60;;;14.50;99.90;;;;;;4788468;29;20794;-59
2023/05/09 09:21:57;;;;;;;8.97;8.00;;;14.40;99.90;;;;;;4788111;29;20314;-59
2023/05/09 09:24:25;;;;;;;12.87;8.27;;;14.40;99.90;;;;;;4775041;29;20271;-60
2023/05/09 09:27:30;;;;;;;10.23;8.30;;;14.40;99.90;;;;;;4791476;30;20670;-58
2023/05/09 09:30:07;;;;;;;13.50;8.83;;;14.40;99.90;;;;;;4790776;30;20689;-59
2023/05/09 09:32:36;;;;;;;11.07;8.37;;;14.40;99.90;;;;;;4790533;29;20304;-59
2023/05/09 09:35:06;;;;;;;11.10;8.90;;;14.40;99.90;;;;;;4788099;29;20231;-59
2023/05/09 09:37:38;;;;;;;11.07;8.90;;;14.40;99.90;;;;;;4787482;29;20801;-59
2023/05/09 09:40:08;;;;;;;11.37;8.90;;;14.50;99.90;;;;;;4790996;29;20278;-59
2023/05/09 09:42:43;;;;;;;13.27;9.03;;;14.50;99.90;;;;;;4784348;29;20275;-59
2023/05/09 09:45:13;;;;;;;12.93;8.63;;;14.50;99.90;;;;;;4790932;29;20233;-59
2023/05/09 09:47:43;;;;;;;12.60;8.97;;;14.40;99.90;;;;;;4789119;30;20226;-59
2023/05/09 09:50:13;;;;;;;10.97;8.70;;;14.40;99.90;;;;;;4790432;29;20251;-59
2023/05/09 09:52:44;;;;;;;10.73;8.37;;;14.30;99.90;;;;;;4790342;29;20226;-59
2023/05/09 09:55:13;;;;;;;16.23;8.87;;;14.30;99.90;;;;;;4785882;29;20629;-59
2023/05/09 09:57:44;;;;;;;13.20;8.13;;;14.20;99.90;;;;;;4800686;29;20229;-59
2023/05/09 10:00:14;;;;;;;12.43;8.77;;;14.10;99.90;;;;;;4809115;29;20202;-60
2023/05/09 10:03:20;;;;;;;15.50;8.80;;;14.10;99.90;;;;;;4773513;29;20238;-59
2023/05/09 10:06:01;;;;;;;10.17;7.70;;;14.10;99.90;;;;;;4788744;29;20214;-59
2023/05/09 10:08:31;;;;;;;8.83;7.70;;;14.10;99.90;;;;;;4799832;29;20229;-60
2023/05/09 10:11:00;;;;;;;10.10;7.17;;;14.10;99.90;;;;;;4797233;29;20214;-58
2023/05/09 10:13:28;;;;;;;8.40;7.27;;;14.00;99.90;;;;;;4789952;29;20598;-59
2023/05/09 10:15:59;;;;;;;13.97;7.50;;;14.10;99.90;;;;;;4789927;29;20262;-59
2023/05/09 10:18:29;;;;;;;7.50;6.80;;;14.10;99.90;;;;;;4792016;29;20222;-59
2023/05/09 10:21:00;;;;;;;10.30;6.83;;;14.00;99.90;;;;;;4790075;30;20309;-59
2023/05/09 10:23:32;;;;;;;6.50;5.90;;;14.00;99.90;;;;;;4802085;29;20221;-60
2023/05/09 10:26:09;;;;;;;9.00;6.00;;;13.90;99.90;;;;;;4774388;30;20250;-59
2023/05/09 10:28:41;;;;;;;8.57;5.27;;;13.90;99.90;;;;;;4775951;29;20784;-59
2023/05/09 10:31:16;;;;;;;6.30;5.80;;;13.90;99.90;;;;;;4808108;29;20234;-61
2023/05/09 10:33:47;;;;;;;4.87;4.47;;;13.90;99.90;;;;;;4801501;29;20220;-59
2023/05/09 10:36:19;;;;;;;7.30;4.63;;;14.00;99.90;;;;;;4797246;29;20206;-60
2023/05/09 10:38:50;;;;;;;6.87;4.60;;;13.80;99.90;;;;;;4808059;29;20201;-59
2023/05/09 10:41:20;;;;;;;4.57;4.13;;;13.80;99.90;;;;;;4807698;29;20229;-59
2023/05/09 10:43:49;;;;;;;3.90;3.60;;;13.80;99.90;;;;;;4816141;29;20286;-59
2023/05/09 10:46:18;;;;;;;6.00;4.00;;;13.70;99.90;;;;;;4810747;29;20232;-60
2023/05/09 10:48:48;;;;;;;4.23;3.73;;;13.70;99.90;;;;;;4817612;29;20315;-59
2023/05/09 10:51:17;;;;;;;3.87;3.47;;;13.60;99.90;;;;;;4801309;29;20572;-59
2023/05/09 10:53:48;;;;;;;6.07;4.10;;;13.70;99.90;;;;;;4812399;29;20205;-60
2023/05/09 10:56:25;;;;;;;4.03;3.50;;;13.70;99.90;;;;;;4802018;29;20241;-60
2023/05/09 10:58:53;;;;;;;3.93;3.73;;;13.70;99.90;;;;;;4802133;29;20236;-59
2023/05/09 11:01:39;;;;;;;4.90;3.80;;;13.60;99.90;;;;;;4817855;29;20229;-59
2023/05/09 11:04:13;;;;;;;4.43;4.13;;;13.70;99.90;;;;;;4807023;29;20233;-57
2023/05/09 11:06:52;;;;;;;7.17;4.23;;;13.60;99.90;;;;;;4806165;29;20241;-59
2023/05/09 11:09:31;;;;;;;4.00;3.70;;;13.70;99.90;;;;;;4810941;29;20280;-59
2023/05/09 11:12:11;;;;;;;3.97;3.60;;;13.70;99.90;;;;;;4810607;29;20197;-60
2023/05/09 11:14:43;;;;;;;4.23;3.70;;;13.70;99.90;;;;;;4814743;29;20281;-60
2023/05/09 11:17:13;;;;;;;4.27;3.77;;;13.70;99.90;;;;;;4812673;29;20278;-59
2023/05/09 11:20:00;;;;;;;4.13;3.83;;;13.60;99.90;;;;;;4823637;29;20274;-59
2023/05/09 11:22:31;;;;;;;5.37;4.20;;;13.50;99.90;;;;;;4813605;29;20597;-60
2023/05/09 11:25:04;;;;;;;4.57;4.17;;;13.40;99.90;;;;;;4800475;29;20256;-60
2023/05/09 11:27:39;;;;;;;4.93;4.53;;;13.40;99.90;;;;;;4803229;29;20673;-59
2023/05/09 11:30:09;;;;;;;7.20;4.90;;;13.50;99.90;;;;;;4807121;29;20201;-59
2023/05/09 11:32:47;;;;;;;5.57;5.10;;;13.50;99.90;;;;;;4806591;29;20225;-60
2023/05/09 11:35:19;;;;;;;8.83;5.00;;;13.60;99.90;;;;;;4808297;29;20232;-59
2023/05/09 11:37:49;;;;;;;4.03;3.73;;;13.60;99.90;;;;;;4807883;29;20320;-59
2023/05/09 11:40:21;;;;;;;5.27;3.80;;;13.50;99.90;;;;;;4813239;29;20285;-60
2023/05/09 11:42:53;;;;;;;3.30;3.10;;;13.40;99.90;;;;;;4806787;29;20233;-59
2023/05/09 11:45:27;;;;;;;3.43;2.90;;;13.30;99.90;;;;;;4795191;29;20720;-60
2023/05/09 11:47:56;;;;;;;2.90;2.80;;;13.20;99.90;;;;;;4801665;29;20205;-58
2023/05/09 11:50:25;;;;;;;3.07;2.87;;;13.10;99.90;;;;;;4790233;29;20710;-59
2023/05/09 11:52:54;;;;;;;3.20;3.00;;;13.10;99.90;;;;;;4794071;29;20769;-59
2023/05/09 11:55:24;;;;;;;2.63;2.53;;;13.10;99.90;;;;;;4808931;29;20252;-59
2023/05/09 11:57:53;;;;;;;3.27;3.00;;;13.10;99.90;;;;;;4812980;29;20220;-59
2023/05/09 12:00:23;;;;;;;3.03;2.93;;;13.00;99.90;;;;;;4784611;29;20205;-59
2023/05/09 12:02:52;;;;;;;4.13;3.27;;;13.00;99.90;;;;;;4812538;29;20623;-59
2023/05/09 12:05:22;;;;;;;3.73;3.43;;;13.10;99.90;;;;;;4805681;29;20229;-60
2023/05/09 12:07:51;;;;;;;5.17;3.73;;;13.10;99.90;;;;;;4812991;29;20633;-59
2023/05/09 12:10:21;;;;;;;3.70;3.23;;;13.00;99.90;;;;;;4813124;29;20709;-60
2023/05/09 12:12:54;;;;;;;3.80;3.50;;;13.00;99.90;;;;;;4802611;29;20226;-59
2023/05/09 12:15:23;;;;;;;6.93;3.70;;;13.00;99.90;;;;;;4812283;29;20640;-59
2023/05/09 12:18:03;;;;;;;4.10;3.80;;;13.10;99.90;;;;;;4806386;29;20201;-60
2023/05/09 12:20:41;;;;;;;5.63;3.60;;;13.10;99.90;;;;;;4808158;29;20233;-59
2023/05/09 12:23:11;;;;;;;4.03;3.73;;;13.10;99.90;;;;;;4811616;29;20232;-59
2023/05/09 12:25:39;;;;;;;5.90;4.30;;;13.10;99.90;;;;;;4818445;29;20236;-59
2023/05/09 12:28:09;;;;;;;4.83;4.10;;;13.10;99.90;;;;;;4808865;29;20703;-59
2023/05/09 12:30:58;;;;;;;4.90;4.50;;;13.10;99.90;;;;;;4808486;29;20224;-59
2023/05/09 13:02:03;;;;;;;3.47;3.23;;;13.40;99.90;;;;;;5424606;24;20235;-61
2023/05/09 13:04:32;;;;;;;3.40;3.20;;;13.40;99.90;;;;;;4829591;29;20278;-60
2023/05/09 13:07:00;;;;;;;3.30;3.03;;;13.40;99.90;;;;;;4816751;29;20417;-61
2023/05/09 13:09:28;;;;;;;4.47;3.33;;;13.40;99.90;;;;;;4837079;29;20253;-60
2023/05/09 13:11:57;;;;;;;3.70;3.50;;;13.40;99.90;;;;;;4835765;29;20203;-60
2023/05/09 13:14:25;;;;;;;4.03;3.60;;;13.40;99.90;;;;;;4833052;29;20228;-60
2023/05/09 13:16:54;;;;;;;3.77;3.57;;;13.40;99.90;;;;;;4832644;29;20234;-61
2023/05/09 13:19:24;;;;;;;3.80;3.60;;;13.40;99.90;;;;;;4833328;29;20751;-60
2023/05/09 13:21:53;;;;;;;4.10;3.80;;;13.40;99.90;;;;;;4836938;29;20224;-60
2023/05/09 13:24:22;;;;;;;3.40;3.23;;;13.40;99.90;;;;;;4839435;29;20224;-60
2023/05/09 13:26:50;;;;;;;3.70;3.37;;;13.40;99.90;;;;;;4838766;29;20265;-61
2023/05/09 13:29:18;;;;;;;3.67;3.47;;;13.40;99.90;;;;;;4836931;29;20314;-61
2023/05/09 13:31:47;;;;;;;3.90;3.60;;;13.50;99.90;;;;;;4843427;29;20273;-61
2023/05/09 13:34:15;;;;;;;4.23;3.93;;;13.40;99.90;;;;;;4840429;29;20228;-61
2023/05/09 13:36:45;;;;;;;3.50;3.20;;;13.30;99.90;;;;;;4844443;29;20699;-61
2023/05/09 13:39:13;;;;;;;4.30;3.90;;;13.30;99.90;;;;;;4847551;29;20227;-61
2023/05/09 13:41:41;;;;;;;3.70;3.50;;;13.30;99.90;;;;;;4835396;29;20239;-61
2023/05/09 13:44:09;;;;;;;3.97;3.77;;;13.40;99.90;;;;;;4841871;29;20243;-61
2023/05/09 13:46:38;;;;;;;3.63;3.43;;;13.50;99.90;;;;;;4837518;29;21379;-61
2023/05/09 13:49:06;;;;;;;3.43;3.20;;;13.50;99.90;;;;;;4846120;29;20228;-61
2023/05/09 13:51:34;;;;;;;2.77;2.67;;;13.40;99.90;;;;;;4836272;29;20679;-60
2023/05/09 13:54:07;;;;;;;3.27;2.50;;;13.40;99.90;;;;;;4842415;29;20192;-60
2023/05/09 13:56:36;;;;;;;2.50;2.40;;;13.40;99.90;;;;;;4839552;29;20635;-60
2023/05/09 13:59:04;;;;;;;4.30;2.70;;;13.30;99.90;;;;;;4839328;29;20232;-60
2023/05/09 14:01:32;;;;;;;2.60;2.50;;;13.50;99.90;;;;;;4837291;29;20283;-60
2023/05/09 14:04:01;;;;;;;2.67;2.57;;;13.40;99.90;;;;;;4835899;29;20231;-60
2023/05/09 14:06:30;;;;;;;3.10;2.80;;;13.50;99.90;;;;;;4837639;29;20208;-60
2023/05/09 14:08:58;;;;;;;2.30;2.10;;;13.60;99.90;;;;;;4833835;29;20672;-61
2023/05/09 14:11:27;;;;;;;2.60;2.40;;;13.60;99.90;;;;;;4835309;29;20232;-60
2023/05/09 14:13:56;;;;;;;3.10;2.90;;;13.50;99.90;;;;;;4844855;29;20225;-60
2023/05/09 14:16:24;;;;;;;2.33;2.20;;;13.50;99.90;;;;;;4839981;29;20998;-60
2023/05/09 14:18:53;;;;;;;2.80;2.70;;;13.60;99.90;;;;;;4838809;29;20299;-60
2023/05/09 14:21:21;;;;;;;2.67;2.47;;;13.70;99.90;;;;;;4841495;29;20192;-59
2023/05/09 14:23:50;;;;;;;2.60;2.50;;;13.70;99.90;;;;;;4845825;29;20216;-60
2023/05/09 14:26:18;;;;;;;3.03;2.80;;;13.70;99.90;;;;;;4838280;29;20223;-60
2023/05/09 14:28:48;;;;;;;2.80;2.70;;;13.60;99.90;;;;;;4841958;29;20296;-60
2023/05/09 14:31:16;;;;;;;4.20;3.40;;;13.70;99.90;;;;;;4841135;29;20228;-60
2023/05/09 14:33:44;;;;;;;3.30;3.20;;;13.80;99.90;;;;;;4839038;29;20692;-60
2023/05/09 14:36:13;;;;;;;3.70;3.50;;;13.90;99.90;;;;;;4841074;29;20204;-60
2023/05/09 14:38:42;;;;;;;3.50;3.30;;;13.90;99.90;;;;;;4839099;29;20758;-60
2023/05/09 14:41:10;;;;;;;3.50;3.30;;;13.90;99.90;;;;;;4840618;29;20626;-60
2023/05/09 14:43:38;;;;;;;3.20;3.10;;;14.00;99.90;;;;;;4840190;29;20227;-60
2023/05/09 14:46:08;;;;;;;3.00;2.90;;;14.00;99.90;;;;;;4835161;29;20236;-60
2023/05/09 14:48:36;;;;;;;2.70;2.60;;;14.00;99.90;;;;;;4838096;29;20232;-60
2023/05/09 14:51:05;;;;;;;3.47;3.27;;;14.00;99.90;;;;;;4840099;29;20296;-60
2023/05/09 14:53:34;;;;;;;2.90;2.80;;;14.00;99.90;;;;;;4845046;29;20713;-60
2023/05/09 14:56:02;;;;;;;2.73;2.63;;;13.90;99.90;;;;;;4827398;24;20250;-58
2023/05/09 14:59:08;;;;;;;2.87;2.77;;;13.90;99.90;;;;;;4807036;29;20216;-58
2023/05/09 15:01:38;;;;;;;3.40;3.20;;;14.00;99.90;;;;;;4810856;29;20687;-57
2023/05/09 15:04:07;;;;;;;2.90;2.80;;;14.10;99.90;;;;;;4817280;29;20290;-59
2023/05/09 15:06:35;;;;;;;3.17;3.07;;;14.10;99.90;;;;;;4808822;29;20291;-57
2023/05/09 15:09:04;;;;;;;3.07;2.97;;;14.20;99.90;;;;;;4822017;29;20217;-59
2023/05/09 15:11:32;;;;;;;3.50;3.40;;;14.20;99.90;;;;;;4815099;29;20707;-57
2023/05/09 15:14:15;;;;;;;3.23;3.13;;;14.30;99.90;;;;;;4822199;29;20245;-57
2023/05/09 15:17:23;;;;;;;3.43;3.27;;;14.30;99.90;;;;;;4794584;29;20273;-58
2023/05/09 15:20:13;;;;;;;3.50;3.30;;;14.30;99.90;;;;;;4813174;29;20282;-57
2023/05/09 15:22:42;;;;;;;4.17;3.47;;;14.30;99.90;;;;;;4802535;29;20240;-58
2023/05/09 15:25:11;;;;;;;3.97;3.77;;;14.30;99.90;;;;;;4807360;29;20308;-58
2023/05/09 15:27:39;;;;;;;4.07;3.80;;;14.40;99.90;;;;;;4790419;29;20230;-57
2023/05/09 15:30:10;;;;;;;4.40;4.03;;;14.50;99.90;;;;;;4807624;29;20194;-57
2023/05/09 15:32:39;;;;;;;5.30;3.97;;;14.40;99.90;;;;;;4818244;29;20691;-58
2023/05/09 15:35:09;;;;;;;4.47;4.17;;;14.40;99.90;;;;;;4809386;29;20570;-57
2023/05/09 15:37:39;;;;;;;4.13;3.93;;;14.40;99.90;;;;;;4806735;29;20226;-58
2023/05/09 15:40:08;;;;;;;4.67;4.37;;;14.30;99.90;;;;;;4802219;29;20229;-57
2023/05/09 15:42:39;;;;;;;5.00;4.70;;;14.40;99.90;;;;;;4793743;29;20282;-57
2023/05/09 15:45:08;;;;;;;5.83;5.00;;;14.40;99.90;;;;;;4804291;29;20218;-58
2023/05/09 15:47:37;;;;;;;5.83;5.33;;;14.50;99.90;;;;;;4805988;29;20230;-58
2023/05/09 15:50:06;;;;;;;5.70;5.20;;;14.50;99.90;;;;;;4820554;29;20225;-57
2023/05/09 15:52:36;;;;;;;6.17;5.60;;;14.50;99.90;;;;;;4791685;29;20221;-58
2023/05/09 15:55:07;;;;;;;6.00;5.50;;;14.40;99.90;;;;;;4795767;29;20245;-58
2023/05/09 15:57:36;;;;;;;6.57;6.00;;;14.50;99.90;;;;;;4787588;30;20238;-58
2023/05/09 16:00:06;;;;;;;7.23;6.53;;;14.40;99.90;;;;;;4792437;29;20195;-58
2023/05/09 16:02:36;;;;;;;6.73;6.23;;;14.40;99.90;;;;;;4790715;29;20226;-57
2023/05/09 16:05:06;;;;;;;7.37;6.70;;;14.50;99.90;;;;;;4790604;29;20227;-57
2023/05/09 16:07:36;;;;;;;8.67;6.70;;;14.60;99.90;;;;;;4791995;29;20279;-58
2023/05/09 16:10:07;;;;;;;8.07;7.00;;;14.60;99.90;;;;;;4792919;29;20644;-57
2023/05/09 16:12:35;;;;;;;11.67;7.20;;;14.60;99.90;;;;;;4792529;29;20250;-57
2023/05/09 16:15:04;;;;;;;7.87;7.00;;;14.60;99.90;;;;;;4787766;29;20229;-57
2023/05/09 16:17:32;;;;;;;9.00;7.77;;;14.50;99.90;;;;;;4788195;29;20756;-58
2023/05/09 16:20:02;;;;;;;7.60;6.90;;;14.50;99.90;;;;;;4788418;29;20601;-57
2023/05/09 16:22:30;;;;;;;9.23;7.30;;;14.50;99.90;;;;;;4796572;29;20234;-57
2023/05/09 16:24:59;;;;;;;9.13;8.23;;;14.60;99.90;;;;;;4773260;30;20237;-57
2023/05/09 16:27:28;;;;;;;10.93;8.40;;;14.60;99.90;;;;;;4787872;29;20226;-58
2023/05/09 16:29:59;;;;;;;9.70;7.83;;;14.70;99.90;;;;;;4787928;29;20218;-57
2023/05/09 16:32:27;;;;;;;9.60;8.53;;;14.70;99.90;;;;;;4779593;29;20258;-58
2023/05/09 16:34:56;;;;;;;12.20;9.30;;;14.90;99.90;;;;;;4786515;29;20223;-58
2023/05/09 16:37:27;;;;;;;13.53;9.17;;;14.80;99.90;;;;;;4788493;29;20672;-57
2023/05/09 16:39:56;;;;;;;10.40;8.73;;;14.90;99.90;;;;;;4787583;29;20245;-57
2023/05/09 16:42:25;;;;;;;9.20;8.27;;;14.80;99.90;;;;;;4784364;29;20259;-58
2023/05/09 16:44:55;;;;;;;11.40;9.33;;;14.80;99.90;;;;;;4789505;29;20228;-57
2023/05/09 16:47:25;;;;;;;11.97;9.30;;;14.90;99.90;;;;;;4792955;29;20231;-57
2023/05/09 16:49:53;;;;;;;15.37;9.63;;;14.90;99.90;;;;;;4775906;29;20235;-57
2023/05/09 16:55:46;;;;;;;16.27;10.53;;;14.90;99.90;;;;;;4784354;29;20237;-57
2023/05/09 16:58:14;;;;;;;11.83;9.67;;;15.00;99.90;;;;;;4790299;29;20223;-57
2023/05/09 17:00:44;;;;;;;10.87;9.60;;;15.00;99.90;;;;;;4790363;29;20757;-58
2023/05/09 17:03:13;;;;;;;13.57;9.87;;;15.00;99.90;;;;;;4791295;29;20231;-58
2023/05/09 17:05:41;;;;;;;17.67;11.43;;;15.00;99.90;;;;;;4786458;29;20228;-57
2023/05/09 17:08:10;;;;;;;17.53;10.60;;;14.90;99.90;;;;;;4786588;29;20649;-58
2023/05/09 17:10:38;;;;;;;13.47;10.60;;;14.90;99.90;;;;;;4780801;29;20228;-57
2023/05/09 17:13:09;;;;;;;11.03;9.67;;;14.90;99.90;;;;;;4784500;29;20243;-61
2023/05/09 17:15:37;;;;;;;13.70;9.80;;;14.80;99.90;;;;;;4773754;29;20240;-61
2023/05/09 17:18:07;;;;;;;14.27;9.87;;;14.90;99.90;;;;;;4778535;29;20207;-61
2023/05/09 17:20:36;;;;;;;12.87;10.17;;;14.90;99.90;;;;;;4778531;29;20230;-61
2023/05/09 17:23:04;;;;;;;12.07;9.93;;;14.90;99.90;;;;;;4782276;29;20242;-61
2023/05/09 17:25:33;;;;;;;14.83;11.00;;;14.90;99.90;;;;;;4776459;29;20230;-61
2023/05/09 17:28:01;;;;;;;13.67;10.67;;;14.90;99.90;;;;;;4782083;29;20282;-61
2023/05/09 17:30:29;;;;;;;14.23;11.07;;;14.80;99.90;;;;;;4780802;29;21153;-61
2023/05/09 17:32:58;;;;;;;16.23;11.97;;;14.80;99.90;;;;;;4781305;29;20203;-61
2023/05/09 17:35:29;;;;;;;16.53;11.60;;;14.80;99.90;;;;;;4779338;29;20249;-61
2023/05/09 17:37:57;;;;;;;16.77;12.60;;;14.90;99.90;;;;;;4778164;29;20233;-61
2023/05/09 17:40:26;;;;;;;19.80;13.23;;;14.90;99.90;;;;;;4781938;29;20288;-61
2023/05/09 17:42:54;;;;;;;18.53;13.10;;;14.90;99.90;;;;;;4766590;29;20227;-61
2023/05/09 17:45:22;;;;;;;21.93;14.60;;;15.00;99.90;;;;;;4782102;29;20276;-60
2023/05/09 17:47:51;;;;;;;21.63;13.73;;;15.00;99.90;;;;;;4786046;29;20208;-61
2023/05/09 17:50:19;;;;;;;17.80;12.77;;;15.00;99.90;;;;;;4789533;29;20230;-61
2023/05/09 17:52:49;;;;;;;14.93;11.97;;;15.00;99.90;;;;;;4785299;29;20227;-61
2023/05/09 17:55:17;;;;;;;14.60;12.47;;;15.00;99.90;;;;;;4782754;29;20238;-61
2023/05/09 17:57:46;;;;;;;15.17;11.97;;;15.00;99.90;;;;;;4781938;29;20233;-61
2023/05/09 18:00:15;;;;;;;16.40;13.07;;;15.00;99.90;;;;;;4788535;29;20620;-61
2023/05/09 18:02:44;;;;;;;18.70;12.93;;;15.00;99.90;;;;;;4783304;29;20228;-61
2023/05/09 18:05:12;;;;;;;20.83;12.43;;;15.00;99.90;;;;;;4783748;29;20237;-61
2023/05/09 18:07:41;;;;;;;19.27;13.60;;;14.90;99.90;;;;;;4779242;29;20273;-61
2023/05/09 18:10:11;;;;;;;18.30;12.77;;;14.90;99.90;;;;;;4787512;29;20263;-61
2023/05/09 18:12:40;;;;;;;18.40;13.17;;;14.90;99.90;;;;;;4785694;29;20223;-61
2023/05/09 18:15:09;;;;;;;20.00;14.40;;;14.90;99.90;;;;;;4783964;29;20305;-62
2023/05/09 18:17:37;;;;;;;21.63;13.93;;;14.80;99.90;;;;;;4782142;29;20733;-61
2023/05/09 18:20:07;;;;;;;22.67;13.87;;;14.90;99.90;;;;;;4786795;29;20300;-61
2023/05/09 18:22:36;;;;;;;19.17;14.00;;;14.80;99.90;;;;;;4780363;29;20710;-62
2023/05/09 18:25:05;;;;;;;19.60;14.10;;;14.80;99.90;;;;;;4780963;29;20237;-62
2023/05/09 18:27:34;;;;;;;22.10;14.47;;;14.80;99.90;;;;;;4783478;29;20524;-60
2023/05/09 18:30:02;;;;;;;19.30;14.23;;;14.70;99.90;;;;;;4787574;29;20622;-61
2023/05/09 18:32:31;;;;;;;22.97;15.23;;;14.70;99.90;;;;;;4786979;29;20235;-61
2023/05/09 18:34:59;;;;;;;23.87;16.23;;;14.80;99.90;;;;;;4780634;29;20230;-61
2023/05/09 18:37:28;;;;;;;25.63;17.07;;;14.70;99.90;;;;;;4782081;29;20233;-61
2023/05/09 18:39:56;;;;;;;28.23;16.20;;;14.70;99.90;;;;;;4773730;29;20243;-61
2023/05/09 18:42:24;;;;;;;24.20;15.73;;;14.60;99.90;;;;;;4782502;29;20215;-61
2023/05/09 18:44:54;;;;;;;24.93;16.33;;;14.50;99.90;;;;;;4781462;29;20208;-61
2023/05/09 18:47:23;;;;;;;27.30;16.00;;;14.50;99.90;;;;;;4781802;29;20342;-61
2023/05/09 18:49:51;;;;;;;24.97;15.73;;;14.50;99.90;;;;;;4761796;29;20264;-61
2023/05/09 18:52:21;;;;;;;23.97;15.37;;;14.50;99.90;;;;;;4776202;29;20234;-61
2023/05/09 18:54:49;;;;;;;22.23;14.73;;;14.50;99.90;;;;;;4779895;29;20239;-61
2023/05/09 18:57:18;;;;;;;18.33;13.27;;;14.40;99.90;;;;;;4783448;29;20202;-61
2023/05/09 18:59:47;;;;;;;24.00;14.50;;;14.30;99.90;;;;;;4783915;29;20578;-61
2023/05/09 19:02:16;;;;;;;24.20;13.87;;;14.30;99.90;;;;;;4778816;29;20234;-61
2023/05/09 19:04:45;;;;;;;21.80;13.20;;;14.20;99.90;;;;;;4782388;29;20227;-61
2023/05/09 19:07:13;;;;;;;19.70;12.17;;;14.20;99.90;;;;;;4777309;29;20636;-61
2023/05/09 19:09:42;;;;;;;16.83;11.47;;;14.20;99.90;;;;;;4783539;29;20249;-61
2023/05/09 19:12:10;;;;;;;15.67;11.37;;;14.20;99.90;;;;;;4778737;29;20217;-61
2023/05/09 19:14:38;;;;;;;19.43;11.90;;;14.10;99.90;;;;;;4778186;29;20239;-61
2023/05/09 19:17:07;;;;;;;18.40;12.10;;;14.10;99.90;;;;;;4785582;29;20246;-61
2023/05/09 19:19:37;;;;;;;18.23;11.40;;;14.00;99.90;;;;;;4785880;29;20225;-61
2023/05/09 19:22:05;;;;;;;16.93;11.53;;;14.00;99.90;;;;;;4782940;29;20236;-61
2023/05/09 19:24:33;;;;;;;16.77;11.00;;;14.00;99.90;;;;;;4784777;29;20203;-61
2023/05/09 19:27:02;;;;;;;19.20;11.37;;;14.00;99.90;;;;;;4783200;29;20227;-61
2023/05/09 19:29:31;;;;;;;19.17;12.30;;;14.10;99.90;;;;;;4786368;29;20230;-61
2023/05/09 19:32:00;;;;;;;20.17;12.30;;;14.00;99.90;;;;;;4782469;29;20318;-61
2023/05/09 19:34:29;;;;;;;19.53;11.97;;;14.00;99.90;;;;;;4787330;29;20643;-61
2023/05/09 19:36:58;;;;;;;19.87;11.63;;;13.90;99.90;;;;;;4781253;29;20226;-61
2023/05/09 19:39:29;;;;;;;18.43;12.07;;;14.00;99.90;;;;;;4785599;29;20198;-61
2023/05/09 19:41:57;;;;;;;21.50;12.43;;;13.90;99.90;;;;;;4780213;29;20259;-61
2023/05/09 19:44:29;;;;;;;19.40;11.90;;;14.00;99.90;;;;;;4783413;29;20234;-61
2023/05/09 19:46:57;;;;;;;17.67;11.70;;;14.00;99.90;;;;;;4785781;29;20229;-61
2023/05/09 19:49:25;;;;;;;20.87;11.33;;;13.90;99.90;;;;;;4783565;29;20229;-62
2023/05/09 19:51:54;;;;;;;16.13;11.47;;;13.90;99.90;;;;;;4787089;29;20290;-61
2023/05/09 19:54:26;;;;;;;16.30;10.87;;;13.80;99.90;;;;;;4785669;29;20211;-61
2023/05/09 19:56:56;;;;;;;17.97;11.20;;;13.80;99.90;;;;;;4778846;29;20912;-61
2023/05/09 19:59:25;;;;;;;18.50;10.97;;;13.90;99.90;;;;;;4782633;29;20330;-61
2023/05/09 20:01:53;;;;;;;20.60;11.33;;;13.80;99.90;;;;;;4779711;29;20250;-61
2023/05/09 20:04:22;;;;;;;17.17;10.70;;;13.80;99.90;;;;;;4787815;29;20236;-61
2023/05/09 20:06:51;;;;;;;18.87;11.20;;;13.80;99.90;;;;;;4783513;29;20234;-61
2023/05/09 20:09:20;;;;;;;15.13;10.90;;;13.70;99.90;;;;;;4783941;29;20198;-60
2023/05/09 20:11:49;;;;;;;19.67;11.50;;;13.70;99.90;;;;;;4786814;29;20199;-61
2023/05/09 20:14:18;;;;;;;16.07;10.33;;;13.70;99.90;;;;;;4783740;29;20238;-61
2023/05/09 20:16:46;;;;;;;17.57;10.83;;;13.70;99.90;;;;;;4785438;29;20628;-61
2023/05/09 20:19:15;;;;;;;15.03;10.23;;;13.80;99.90;;;;;;4777011;29;20241;-61
2023/05/09 20:21:44;;;;;;;15.10;10.67;;;13.80;99.90;;;;;;4780514;29;20301;-60
2023/05/09 20:24:12;;;;;;;14.40;10.33;;;13.70;99.90;;;;;;4788022;29;20208;-61
2023/05/09 20:26:41;;;;;;;18.07;10.90;;;13.70;99.90;;;;;;4784467;29;20249;-60
2023/05/09 20:29:10;;;;;;;14.23;10.57;;;13.70;99.90;;;;;;4782846;29;20302;-61
2023/05/09 20:31:38;;;;;;;15.73;10.40;;;13.70;99.90;;;;;;4768067;30;20269;-61
2023/05/09 20:34:09;;;;;;;17.23;11.10;;;13.70;99.90;;;;;;4781110;29;20303;-61
2023/05/09 20:36:37;;;;;;;13.23;10.20;;;13.70;99.90;;;;;;4782310;29;20233;-61
2023/05/09 20:39:05;;;;;;;16.20;10.50;;;13.60;99.90;;;;;;4779453;29;20536;-61
2023/05/09 20:41:37;;;;;;;16.37;10.70;;;13.60;99.90;;;;;;4780519;29;20966;-61
2023/05/09 20:44:05;;;;;;;17.43;10.67;;;13.60;99.90;;;;;;4783917;29;20225;-61
2023/05/09 20:46:35;;;;;;;18.73;11.07;;;13.70;99.90;;;;;;4783424;29;20236;-61
2023/05/09 20:49:04;;;;;;;21.00;11.17;;;13.50;99.90;;;;;;4783243;29;20279;-60
2023/05/09 20:51:33;;;;;;;17.57;11.93;;;13.50;99.90;;;;;;4770828;29;20264;-60
2023/05/09 20:54:01;;;;;;;17.70;11.27;;;13.50;99.90;;;;;;4784857;29;21787;-61
2023/05/09 20:56:29;;;;;;;17.63;11.00;;;13.50;99.90;;;;;;4783919;29;20234;-60
2023/05/09 20:58:59;;;;;;;17.97;11.50;;;13.40;99.90;;;;;;4778215;29;20302;-61
2023/05/09 21:01:30;;;;;;;15.20;11.00;;;13.40;99.90;;;;;;4786419;29;20234;-61
2023/05/09 21:04:00;;;;;;;17.13;11.33;;;13.30;99.90;;;;;;4786122;29;20282;-61
2023/05/09 21:06:28;;;;;;;23.57;12.20;;;13.30;99.90;;;;;;4779703;29;20263;-60
2023/05/09 21:08:56;;;;;;;19.87;11.60;;;13.20;99.90;;;;;;4780564;29;20213;-61
2023/05/09 21:11:25;;;;;;;19.80;11.50;;;13.20;99.90;;;;;;4778862;29;20394;-61
2023/05/09 21:13:53;;;;;;;18.10;11.57;;;13.20;99.90;;;;;;4777188;29;20292;-61
2023/05/09 21:16:21;;;;;;;20.73;11.10;;;13.20;99.90;;;;;;4775596;29;20229;-61
2023/05/09 21:18:50;;;;;;;20.07;10.97;;;13.20;99.90;;;;;;4771682;29;20288;-61
2023/05/09 21:21:20;;;;;;;18.23;10.97;;;13.20;99.90;;;;;;4781054;29;20206;-60
2023/05/09 21:23:49;;;;;;;15.63;10.83;;;13.10;99.90;;;;;;4787050;29;20205;-61
2023/05/09 21:26:17;;;;;;;18.67;10.43;;;13.10;99.90;;;;;;4767571;29;20229;-61
2023/05/09 21:28:46;;;;;;;18.07;11.10;;;13.00;99.90;;;;;;4789732;29;20636;-61
2023/05/09 21:31:14;;;;;;;18.97;10.93;;;13.00;99.90;;;;;;4791658;29;20237;-61
2023/05/09 21:33:42;;;;;;;21.50;10.67;;;12.90;99.90;;;;;;4780237;29;20312;-60
2023/05/09 21:36:10;;;;;;;17.07;10.63;;;12.90;99.90;;;;;;4782067;29;20278;-61
2023/05/09 21:38:40;;;;;;;19.17;10.70;;;12.90;99.90;;;;;;4783468;29;20218;-61
2023/05/09 21:41:08;;;;;;;22.07;10.47;;;12.90;99.90;;;;;;4784177;29;20319;-61
2023/05/09 21:43:37;;;;;;;16.50;10.77;;;12.80;99.90;;;;;;4783627;29;20599;-61
2023/05/09 21:46:05;;;;;;;21.07;11.03;;;12.80;99.90;;;;;;4787891;29;20299;-61
2023/05/09 21:48:34;;;;;;;23.30;11.57;;;12.80;99.90;;;;;;4787418;29;20562;-60
2023/05/09 21:51:03;;;;;;;20.90;10.80;;;12.80;99.90;;;;;;4790569;29;20194;-61
2023/05/09 21:53:31;;;;;;;19.33;11.20;;;12.70;99.90;;;;;;4786989;29;20238;-61
2023/05/09 21:56:01;;;;;;;21.33;11.03;;;12.70;99.90;;;;;;4790552;29;20717;-60
2023/05/09 21:58:29;;;;;;;22.53;12.27;;;12.60;99.90;;;;;;4789181;29;20238;-60
2023/05/09 22:00:57;;;;;;;27.30;12.80;;;12.70;99.90;;;;;;4787616;29;20234;-60